sensor_id;sensor_type;location;lat;lon;timestamp;P1;durP1;ratioP1;P2;durP2;ratioP2
77055;SDS011;67471;44.918;8.614;2023-06-14T00:01:58;24.17;;;14.88;;
77055;SDS011;67471;44.918;8.614;2023-06-14T00:05:02;19.13;;;13.65;;
77055;SDS011;67471;44.918;8.614;2023-06-14T00:08:08;21.35;;;13.43;;
77055;SDS011;67471;44.918;8.614;2023-06-14T00:11:13;20.02;;;13.15;;
77055;SDS011;67471;44.918;8.614;2023-06-14T00:14:16;16.40;;;12.32;;
77055;SDS011;67471;44.918;8.614;2023-06-14T00:17:20;17.38;;;12.63;;
77055;SDS011;67471;44.918;8.614;2023-06-14T00:20:25;17.50;;;12.38;;
77055;SDS011;67471;44.918;8.614;2023-06-14T00:23:29;17.85;;;12.63;;
77055;SDS011;67471;44.918;8.614;2023-06-14T00:26:33;18.27;;;12.43;;
77055;SDS011;67471;44.918;8.614;2023-06-14T00:29:37;15.05;;;10.73;;
77055;SDS011;67471;44.918;8.614;2023-06-14T00:32:41;16.23;;;10.68;;
77055;SDS011;67471;44.918;8.614;2023-06-14T00:35:46;13.48;;;10.57;;
77055;SDS011;67471;44.918;8.614;2023-06-14T00:38:50;15.32;;;9.77;;
77055;SDS011;67471;44.918;8.614;2023-06-14T00:41:54;13.35;;;10.52;;
77055;SDS011;67471;44.918;8.614;2023-06-14T00:44:58;14.90;;;10.77;;
77055;SDS011;67471;44.918;8.614;2023-06-14T00:48:03;13.77;;;10.77;;
77055;SDS011;67471;44.918;8.614;2023-06-14T00:51:09;15.88;;;10.00;;
77055;SDS011;67471;44.918;8.614;2023-06-14T00:54:14;14.00;;;9.60;;
77055;SDS011;67471;44.918;8.614;2023-06-14T00:57:20;12.80;;;9.75;;
77055;SDS011;67471;44.918;8.614;2023-06-14T01:00:25;14.40;;;9.75;;
77055;SDS011;67471;44.918;8.614;2023-06-14T01:03:31;13.20;;;10.05;;
77055;SDS011;67471;44.918;8.614;2023-06-14T01:06:54;15.57;;;10.32;;
77055;SDS011;67471;44.918;8.614;2023-06-14T01:13:19;17.45;;;10.50;;
77055;SDS011;67471;44.918;8.614;2023-06-14T01:16:26;15.93;;;10.73;;
77055;SDS011;67471;44.918;8.614;2023-06-14T01:19:32;18.77;;;12.05;;
77055;SDS011;67471;44.918;8.614;2023-06-14T01:22:42;15.63;;;10.90;;
77055;SDS011;67471;44.918;8.614;2023-06-14T01:25:56;15.50;;;10.75;;
77055;SDS011;67471;44.918;8.614;2023-06-14T01:29:00;17.42;;;11.32;;
77055;SDS011;67471;44.918;8.614;2023-06-14T01:32:05;21.52;;;11.90;;
77055;SDS011;67471;44.918;8.614;2023-06-14T01:35:10;15.48;;;11.18;;
77055;SDS011;67471;44.918;8.614;2023-06-14T01:38:14;18.55;;;11.70;;
77055;SDS011;67471;44.918;8.614;2023-06-14T01:41:18;20.77;;;13.75;;
77055;SDS011;67471;44.918;8.614;2023-06-14T01:44:23;18.50;;;12.95;;
77055;SDS011;67471;44.918;8.614;2023-06-14T01:47:30;21.52;;;13.35;;
77055;SDS011;67471;44.918;8.614;2023-06-14T01:50:35;17.70;;;13.10;;
77055;SDS011;67471;44.918;8.614;2023-06-14T01:53:41;23.50;;;14.38;;
77055;SDS011;67471;44.918;8.614;2023-06-14T01:56:47;21.25;;;14.38;;
77055;SDS011;67471;44.918;8.614;2023-06-14T01:59:51;19.55;;;13.73;;
77055;SDS011;67471;44.918;8.614;2023-06-14T02:02:54;23.20;;;14.52;;
77055;SDS011;67471;44.918;8.614;2023-06-14T02:05:59;18.73;;;14.10;;
77055;SDS011;67471;44.918;8.614;2023-06-14T02:09:02;21.48;;;13.90;;
77055;SDS011;67471;44.918;8.614;2023-06-14T02:12:06;23.80;;;15.23;;
77055;SDS011;67471;44.918;8.614;2023-06-14T02:15:10;20.92;;;14.35;;
77055;SDS011;67471;44.918;8.614;2023-06-14T02:18:20;25.40;;;15.55;;
77055;SDS011;67471;44.918;8.614;2023-06-14T02:21:25;20.13;;;14.18;;
77055;SDS011;67471;44.918;8.614;2023-06-14T02:24:28;22.17;;;13.77;;
77055;SDS011;67471;44.918;8.614;2023-06-14T02:27:33;20.38;;;13.35;;
77055;SDS011;67471;44.918;8.614;2023-06-14T02:30:37;19.48;;;13.48;;
77055;SDS011;67471;44.918;8.614;2023-06-14T02:33:42;19.27;;;14.20;;
77055;SDS011;67471;44.918;8.614;2023-06-14T02:36:46;22.27;;;14.32;;
77055;SDS011;67471;44.918;8.614;2023-06-14T02:39:51;20.98;;;12.88;;
77055;SDS011;67471;44.918;8.614;2023-06-14T02:42:55;25.77;;;15.73;;
77055;SDS011;67471;44.918;8.614;2023-06-14T02:45:58;19.00;;;12.02;;
77055;SDS011;67471;44.918;8.614;2023-06-14T02:49:02;22.60;;;14.18;;
77055;SDS011;67471;44.918;8.614;2023-06-14T02:52:06;22.77;;;15.40;;
77055;SDS011;67471;44.918;8.614;2023-06-14T02:55:09;20.58;;;14.57;;
77055;SDS011;67471;44.918;8.614;2023-06-14T02:58:14;23.13;;;14.95;;
77055;SDS011;67471;44.918;8.614;2023-06-14T03:01:18;22.40;;;14.60;;
77055;SDS011;67471;44.918;8.614;2023-06-14T03:04:22;28.27;;;14.90;;
77055;SDS011;67471;44.918;8.614;2023-06-14T03:07:29;24.83;;;14.93;;
77055;SDS011;67471;44.918;8.614;2023-06-14T03:10:34;22.77;;;14.57;;
77055;SDS011;67471;44.918;8.614;2023-06-14T03:13:39;21.23;;;14.73;;
77055;SDS011;67471;44.918;8.614;2023-06-14T03:16:44;21.33;;;14.82;;
77055;SDS011;67471;44.918;8.614;2023-06-14T03:19:50;26.17;;;15.57;;
77055;SDS011;67471;44.918;8.614;2023-06-14T03:22:54;24.77;;;15.57;;
77055;SDS011;67471;44.918;8.614;2023-06-14T03:25:58;20.48;;;14.52;;
77055;SDS011;67471;44.918;8.614;2023-06-14T03:29:02;24.02;;;15.75;;
77055;SDS011;67471;44.918;8.614;2023-06-14T03:32:06;23.73;;;15.32;;
77055;SDS011;67471;44.918;8.614;2023-06-14T03:35:13;20.15;;;14.88;;
77055;SDS011;67471;44.918;8.614;2023-06-14T03:38:21;24.40;;;15.30;;
77055;SDS011;67471;44.918;8.614;2023-06-14T03:41:26;21.48;;;14.75;;
77055;SDS011;67471;44.918;8.614;2023-06-14T03:44:32;20.38;;;13.98;;
77055;SDS011;67471;44.918;8.614;2023-06-14T03:47:37;19.00;;;12.23;;
77055;SDS011;67471;44.918;8.614;2023-06-14T03:50:40;16.83;;;11.07;;
77055;SDS011;67471;44.918;8.614;2023-06-14T03:53:46;18.23;;;12.75;;
77055;SDS011;67471;44.918;8.614;2023-06-14T03:56:50;18.13;;;13.05;;
77055;SDS011;67471;44.918;8.614;2023-06-14T03:59:54;20.38;;;12.45;;
77055;SDS011;67471;44.918;8.614;2023-06-14T04:02:59;23.52;;;13.93;;
77055;SDS011;67471;44.918;8.614;2023-06-14T04:06:04;30.83;;;14.60;;
77055;SDS011;67471;44.918;8.614;2023-06-14T04:09:08;28.98;;;16.70;;
77055;SDS011;67471;44.918;8.614;2023-06-14T04:12:13;23.27;;;16.02;;
77055;SDS011;67471;44.918;8.614;2023-06-14T04:15:16;30.25;;;17.73;;
77055;SDS011;67471;44.918;8.614;2023-06-14T04:18:21;27.60;;;17.75;;
77055;SDS011;67471;44.918;8.614;2023-06-14T04:21:25;24.08;;;17.63;;
77055;SDS011;67471;44.918;8.614;2023-06-14T04:24:31;29.17;;;18.88;;
77055;SDS011;67471;44.918;8.614;2023-06-14T04:27:36;29.15;;;18.92;;
77055;SDS011;67471;44.918;8.614;2023-06-14T04:30:41;28.00;;;17.77;;
77055;SDS011;67471;44.918;8.614;2023-06-14T04:33:45;29.90;;;18.27;;
77055;SDS011;67471;44.918;8.614;2023-06-14T04:36:58;26.38;;;17.88;;
77055;SDS011;67471;44.918;8.614;2023-06-14T04:40:12;25.92;;;17.20;;
77055;SDS011;67471;44.918;8.614;2023-06-14T04:43:17;27.55;;;17.02;;
77055;SDS011;67471;44.918;8.614;2023-06-14T04:46:22;28.63;;;16.38;;
77055;SDS011;67471;44.918;8.614;2023-06-14T04:49:26;23.48;;;15.73;;
77055;SDS011;67471;44.918;8.614;2023-06-14T04:52:34;25.88;;;15.40;;
77055;SDS011;67471;44.918;8.614;2023-06-14T04:55:38;23.58;;;14.70;;
77055;SDS011;67471;44.918;8.614;2023-06-14T04:58:43;20.17;;;13.75;;
77055;SDS011;67471;44.918;8.614;2023-06-14T05:01:47;24.83;;;13.30;;
77055;SDS011;67471;44.918;8.614;2023-06-14T05:04:51;18.33;;;12.88;;
77055;SDS011;67471;44.918;8.614;2023-06-14T05:07:56;19.45;;;11.82;;
77055;SDS011;67471;44.918;8.614;2023-06-14T05:11:00;17.70;;;12.65;;
77055;SDS011;67471;44.918;8.614;2023-06-14T05:14:04;22.50;;;13.50;;
77055;SDS011;67471;44.918;8.614;2023-06-14T05:17:09;19.98;;;13.85;;
77055;SDS011;67471;44.918;8.614;2023-06-14T05:20:13;22.73;;;14.68;;
77055;SDS011;67471;44.918;8.614;2023-06-14T05:23:17;25.10;;;15.38;;
77055;SDS011;67471;44.918;8.614;2023-06-14T05:26:21;21.88;;;13.27;;
77055;SDS011;67471;44.918;8.614;2023-06-14T05:29:26;26.48;;;14.75;;
77055;SDS011;67471;44.918;8.614;2023-06-14T05:32:30;23.52;;;14.77;;
77055;SDS011;67471;44.918;8.614;2023-06-14T05:35:34;23.77;;;15.65;;
77055;SDS011;67471;44.918;8.614;2023-06-14T05:38:38;24.95;;;15.32;;
77055;SDS011;67471;44.918;8.614;2023-06-14T05:41:42;23.10;;;15.13;;
77055;SDS011;67471;44.918;8.614;2023-06-14T05:44:46;23.20;;;14.93;;
77055;SDS011;67471;44.918;8.614;2023-06-14T05:47:50;24.30;;;14.80;;
77055;SDS011;67471;44.918;8.614;2023-06-14T05:50:53;22.23;;;14.75;;
77055;SDS011;67471;44.918;8.614;2023-06-14T05:53:57;23.08;;;14.75;;
77055;SDS011;67471;44.918;8.614;2023-06-14T05:57:01;22.90;;;15.35;;
77055;SDS011;67471;44.918;8.614;2023-06-14T06:00:07;22.58;;;16.65;;
77055;SDS011;67471;44.918;8.614;2023-06-14T06:03:15;27.30;;;18.15;;
77055;SDS011;67471;44.918;8.614;2023-06-14T06:06:19;24.33;;;17.42;;
77055;SDS011;67471;44.918;8.614;2023-06-14T06:09:23;23.35;;;16.50;;
77055;SDS011;67471;44.918;8.614;2023-06-14T06:12:27;25.38;;;18.10;;
77055;SDS011;67471;44.918;8.614;2023-06-14T06:15:31;27.73;;;20.38;;
77055;SDS011;67471;44.918;8.614;2023-06-14T06:18:35;29.10;;;21.02;;
77055;SDS011;67471;44.918;8.614;2023-06-14T06:21:39;30.55;;;20.95;;
77055;SDS011;67471;44.918;8.614;2023-06-14T06:24:43;28.33;;;20.27;;
77055;SDS011;67471;44.918;8.614;2023-06-14T06:27:47;30.65;;;20.95;;
77055;SDS011;67471;44.918;8.614;2023-06-14T06:30:51;31.70;;;19.40;;
77055;SDS011;67471;44.918;8.614;2023-06-14T06:33:54;29.70;;;20.40;;
77055;SDS011;67471;44.918;8.614;2023-06-14T06:36:58;31.85;;;20.85;;
77055;SDS011;67471;44.918;8.614;2023-06-14T06:40:02;27.27;;;19.38;;
77055;SDS011;67471;44.918;8.614;2023-06-14T06:43:09;26.33;;;19.50;;
77055;SDS011;67471;44.918;8.614;2023-06-14T06:46:21;26.70;;;18.50;;
77055;SDS011;67471;44.918;8.614;2023-06-14T06:49:25;27.48;;;20.77;;
77055;SDS011;67471;44.918;8.614;2023-06-14T06:52:29;28.20;;;21.17;;
77055;SDS011;67471;44.918;8.614;2023-06-14T06:55:33;28.90;;;20.73;;
77055;SDS011;67471;44.918;8.614;2023-06-14T06:58:37;29.25;;;19.95;;
77055;SDS011;67471;44.918;8.614;2023-06-14T07:01:40;26.25;;;19.73;;
77055;SDS011;67471;44.918;8.614;2023-06-14T07:04:45;26.75;;;19.65;;
77055;SDS011;67471;44.918;8.614;2023-06-14T07:07:48;26.67;;;18.67;;
77055;SDS011;67471;44.918;8.614;2023-06-14T07:10:52;24.35;;;18.55;;
77055;SDS011;67471;44.918;8.614;2023-06-14T07:13:56;25.30;;;18.23;;
77055;SDS011;67471;44.918;8.614;2023-06-14T07:16:59;20.85;;;16.02;;
77055;SDS011;67471;44.918;8.614;2023-06-14T07:20:04;18.02;;;13.43;;
77055;SDS011;67471;44.918;8.614;2023-06-14T07:23:17;17.50;;;12.63;;
77055;SDS011;67471;44.918;8.614;2023-06-14T07:26:21;14.10;;;10.73;;
77055;SDS011;67471;44.918;8.614;2023-06-14T07:29:25;15.50;;;10.43;;
77055;SDS011;67471;44.918;8.614;2023-06-14T07:32:30;13.93;;;8.68;;
77055;SDS011;67471;44.918;8.614;2023-06-14T07:35:34;13.40;;;8.65;;
77055;SDS011;67471;44.918;8.614;2023-06-14T07:38:38;10.43;;;8.50;;
77055;SDS011;67471;44.918;8.614;2023-06-14T07:41:43;11.00;;;7.60;;
77055;SDS011;67471;44.918;8.614;2023-06-14T07:44:47;20.95;;;9.10;;
77055;SDS011;67471;44.918;8.614;2023-06-14T07:47:51;9.95;;;7.45;;
77055;SDS011;67471;44.918;8.614;2023-06-14T07:50:55;8.93;;;7.57;;
77055;SDS011;67471;44.918;8.614;2023-06-14T07:53:59;9.60;;;7.45;;
77055;SDS011;67471;44.918;8.614;2023-06-14T07:57:05;11.05;;;8.27;;
77055;SDS011;67471;44.918;8.614;2023-06-14T08:00:09;11.18;;;8.73;;
77055;SDS011;67471;44.918;8.614;2023-06-14T08:03:18;12.30;;;9.50;;
77055;SDS011;67471;44.918;8.614;2023-06-14T08:06:22;12.95;;;9.43;;
77055;SDS011;67471;44.918;8.614;2023-06-14T08:09:26;11.85;;;9.93;;
77055;SDS011;67471;44.918;8.614;2023-06-14T08:12:32;13.88;;;10.00;;
77055;SDS011;67471;44.918;8.614;2023-06-14T08:15:37;13.52;;;9.00;;
77055;SDS011;67471;44.918;8.614;2023-06-14T08:18:41;11.90;;;9.77;;
77055;SDS011;67471;44.918;8.614;2023-06-14T08:21:44;14.05;;;11.02;;
77055;SDS011;67471;44.918;8.614;2023-06-14T08:24:49;14.85;;;11.10;;
77055;SDS011;67471;44.918;8.614;2023-06-14T08:27:53;14.35;;;11.23;;
77055;SDS011;67471;44.918;8.614;2023-06-14T08:30:56;15.60;;;13.10;;
77055;SDS011;67471;44.918;8.614;2023-06-14T08:34:00;17.33;;;14.10;;
77055;SDS011;67471;44.918;8.614;2023-06-14T08:37:04;17.98;;;11.63;;
77055;SDS011;67471;44.918;8.614;2023-06-14T08:40:13;15.60;;;11.40;;
77055;SDS011;67471;44.918;8.614;2023-06-14T08:43:21;16.05;;;11.30;;
77055;SDS011;67471;44.918;8.614;2023-06-14T08:46:25;16.33;;;11.65;;
77055;SDS011;67471;44.918;8.614;2023-06-14T08:49:30;15.02;;;12.55;;
77055;SDS011;67471;44.918;8.614;2023-06-14T08:52:35;20.67;;;14.60;;
77055;SDS011;67471;44.918;8.614;2023-06-14T08:55:48;15.65;;;13.48;;
77055;SDS011;67471;44.918;8.614;2023-06-14T08:58:53;24.50;;;18.98;;
77055;SDS011;67471;44.918;8.614;2023-06-14T09:01:57;24.98;;;19.02;;
77055;SDS011;67471;44.918;8.614;2023-06-14T09:05:04;24.33;;;19.33;;
77055;SDS011;67471;44.918;8.614;2023-06-14T09:08:08;27.95;;;21.42;;
77055;SDS011;67471;44.918;8.614;2023-06-14T09:11:13;26.25;;;20.33;;
77055;SDS011;67471;44.918;8.614;2023-06-14T09:14:19;26.42;;;19.55;;
77055;SDS011;67471;44.918;8.614;2023-06-14T09:17:23;20.08;;;16.35;;
77055;SDS011;67471;44.918;8.614;2023-06-14T09:20:28;21.63;;;16.80;;
77055;SDS011;67471;44.918;8.614;2023-06-14T09:23:37;18.05;;;15.10;;
77055;SDS011;67471;44.918;8.614;2023-06-14T09:26:43;19.65;;;16.83;;
77055;SDS011;67471;44.918;8.614;2023-06-14T09:29:47;22.65;;;18.88;;
77055;SDS011;67471;44.918;8.614;2023-06-14T09:32:51;21.27;;;17.13;;
77055;SDS011;67471;44.918;8.614;2023-06-14T09:35:55;18.20;;;13.85;;
77055;SDS011;67471;44.918;8.614;2023-06-14T09:39:00;13.73;;;12.20;;
77055;SDS011;67471;44.918;8.614;2023-06-14T09:42:27;16.95;;;13.00;;
77055;SDS011;67471;44.918;8.614;2023-06-14T09:45:31;13.43;;;12.02;;
77055;SDS011;67471;44.918;8.614;2023-06-14T09:48:36;15.13;;;13.23;;
77055;SDS011;67471;44.918;8.614;2023-06-14T09:51:45;12.18;;;10.77;;
77055;SDS011;67471;44.918;8.614;2023-06-14T09:54:49;16.60;;;14.07;;
77055;SDS011;67471;44.918;8.614;2023-06-14T09:57:52;14.25;;;12.30;;
77055;SDS011;67471;44.918;8.614;2023-06-14T10:00:59;13.50;;;12.07;;
77055;SDS011;67471;44.918;8.614;2023-06-14T10:04:03;14.68;;;13.27;;
77055;SDS011;67471;44.918;8.614;2023-06-14T10:07:08;17.20;;;15.40;;
77055;SDS011;67471;44.918;8.614;2023-06-14T10:10:12;17.92;;;16.10;;
77055;SDS011;67471;44.918;8.614;2023-06-14T10:13:16;18.65;;;15.90;;
77055;SDS011;67471;44.918;8.614;2023-06-14T10:19:29;19.40;;;16.83;;
77055;SDS011;67471;44.918;8.614;2023-06-14T10:22:46;21.42;;;17.10;;
77055;SDS011;67471;44.918;8.614;2023-06-14T10:25:57;20.73;;;17.05;;
77055;SDS011;67471;44.918;8.614;2023-06-14T10:29:09;22.10;;;18.35;;
77055;SDS011;67471;44.918;8.614;2023-06-14T10:32:12;21.25;;;17.33;;
77055;SDS011;67471;44.918;8.614;2023-06-14T10:35:16;21.65;;;18.10;;
77055;SDS011;67471;44.918;8.614;2023-06-14T10:38:20;24.80;;;18.30;;
77055;SDS011;67471;44.918;8.614;2023-06-14T10:41:36;22.48;;;17.75;;
77055;SDS011;67471;44.918;8.614;2023-06-14T10:48:02;22.85;;;18.20;;
77055;SDS011;67471;44.918;8.614;2023-06-14T10:51:17;24.45;;;19.75;;
77055;SDS011;67471;44.918;8.614;2023-06-14T10:54:25;24.25;;;18.52;;
77055;SDS011;67471;44.918;8.614;2023-06-14T10:57:31;25.95;;;20.83;;
77055;SDS011;67471;44.918;8.614;2023-06-14T11:00:56;29.63;;;21.55;;
77055;SDS011;67471;44.918;8.614;2023-06-14T11:04:06;30.63;;;19.35;;
77055;SDS011;67471;44.918;8.614;2023-06-14T11:10:58;23.23;;;18.42;;
77055;SDS011;67471;44.918;8.614;2023-06-14T11:14:03;28.10;;;20.85;;
77055;SDS011;67471;44.918;8.614;2023-06-14T11:17:08;26.77;;;22.88;;
77055;SDS011;67471;44.918;8.614;2023-06-14T11:20:12;29.60;;;23.38;;
77055;SDS011;67471;44.918;8.614;2023-06-14T11:23:19;26.88;;;21.50;;
77055;SDS011;67471;44.918;8.614;2023-06-14T11:26:30;26.63;;;21.83;;
77055;SDS011;67471;44.918;8.614;2023-06-14T11:29:37;26.85;;;22.27;;
77055;SDS011;67471;44.918;8.614;2023-06-14T11:32:45;29.95;;;24.17;;
77055;SDS011;67471;44.918;8.614;2023-06-14T11:35:51;28.25;;;22.15;;
77055;SDS011;67471;44.918;8.614;2023-06-14T11:39:02;28.02;;;22.30;;
77055;SDS011;67471;44.918;8.614;2023-06-14T11:42:07;24.75;;;20.33;;
77055;SDS011;67471;44.918;8.614;2023-06-14T11:45:11;28.35;;;22.40;;
77055;SDS011;67471;44.918;8.614;2023-06-14T11:48:15;29.92;;;23.65;;
77055;SDS011;67471;44.918;8.614;2023-06-14T11:51:18;25.75;;;21.38;;
77055;SDS011;67471;44.918;8.614;2023-06-14T11:54:23;33.35;;;22.10;;
77055;SDS011;67471;44.918;8.614;2023-06-14T11:57:27;22.98;;;19.88;;
77055;SDS011;67471;44.918;8.614;2023-06-14T12:00:31;25.13;;;19.80;;
77055;SDS011;67471;44.918;8.614;2023-06-14T12:03:35;22.73;;;19.05;;
77055;SDS011;67471;44.918;8.614;2023-06-14T12:06:39;24.77;;;20.15;;
77055;SDS011;67471;44.918;8.614;2023-06-14T12:13:02;19.65;;;15.52;;
77055;SDS011;67471;44.918;8.614;2023-06-14T12:16:07;16.63;;;13.95;;
77055;SDS011;67471;44.918;8.614;2023-06-14T12:19:15;13.55;;;10.20;;
77055;SDS011;67471;44.918;8.614;2023-06-14T12:25:28;13.77;;;12.30;;
77055;SDS011;67471;44.918;8.614;2023-06-14T12:28:36;13.90;;;12.02;;
77055;SDS011;67471;44.918;8.614;2023-06-14T12:31:40;14.50;;;11.68;;
77055;SDS011;67471;44.918;8.614;2023-06-14T12:34:44;12.20;;;10.75;;
77055;SDS011;67471;44.918;8.614;2023-06-14T12:37:48;14.52;;;13.02;;
77055;SDS011;67471;44.918;8.614;2023-06-14T12:40:52;14.70;;;10.70;;
77055;SDS011;67471;44.918;8.614;2023-06-14T12:43:55;11.80;;;9.98;;
77055;SDS011;67471;44.918;8.614;2023-06-14T12:47:01;11.40;;;10.02;;
77055;SDS011;67471;44.918;8.614;2023-06-14T12:50:05;14.65;;;11.82;;
77055;SDS011;67471;44.918;8.614;2023-06-14T12:53:09;13.10;;;10.15;;
77055;SDS011;67471;44.918;8.614;2023-06-14T12:56:13;13.25;;;10.30;;
77055;SDS011;67471;44.918;8.614;2023-06-14T12:59:17;13.20;;;10.88;;
77055;SDS011;67471;44.918;8.614;2023-06-14T13:02:21;13.82;;;12.23;;
77055;SDS011;67471;44.918;8.614;2023-06-14T13:05:28;13.57;;;12.18;;
77055;SDS011;67471;44.918;8.614;2023-06-14T13:08:32;18.05;;;13.68;;
77055;SDS011;67471;44.918;8.614;2023-06-14T13:11:36;14.13;;;10.98;;
77055;SDS011;67471;44.918;8.614;2023-06-14T13:14:40;12.63;;;10.73;;
77055;SDS011;67471;44.918;8.614;2023-06-14T13:17:44;12.32;;;9.63;;
77055;SDS011;67471;44.918;8.614;2023-06-14T13:20:51;12.32;;;10.48;;
77055;SDS011;67471;44.918;8.614;2023-06-14T13:23:55;10.98;;;8.50;;
77055;SDS011;67471;44.918;8.614;2023-06-14T13:26:59;9.95;;;8.88;;
77055;SDS011;67471;44.918;8.614;2023-06-14T13:30:03;12.60;;;9.75;;
77055;SDS011;67471;44.918;8.614;2023-06-14T13:33:09;13.20;;;11.30;;
77055;SDS011;67471;44.918;8.614;2023-06-14T13:36:12;13.88;;;11.50;;
77055;SDS011;67471;44.918;8.614;2023-06-14T13:39:16;12.27;;;9.02;;
77055;SDS011;67471;44.918;8.614;2023-06-14T13:42:20;12.27;;;10.18;;
77055;SDS011;67471;44.918;8.614;2023-06-14T13:45:24;12.13;;;9.95;;
77055;SDS011;67471;44.918;8.614;2023-06-14T13:48:28;12.73;;;10.13;;
77055;SDS011;67471;44.918;8.614;2023-06-14T13:51:31;14.05;;;9.98;;
77055;SDS011;67471;44.918;8.614;2023-06-14T13:54:36;14.45;;;11.18;;
77055;SDS011;67471;44.918;8.614;2023-06-14T13:57:40;11.75;;;9.80;;
77055;SDS011;67471;44.918;8.614;2023-06-14T14:00:44;13.18;;;9.85;;
77055;SDS011;67471;44.918;8.614;2023-06-14T14:03:48;11.75;;;9.90;;
77055;SDS011;67471;44.918;8.614;2023-06-14T14:06:53;14.02;;;10.98;;
77055;SDS011;67471;44.918;8.614;2023-06-14T14:09:57;15.80;;;14.10;;
77055;SDS011;67471;44.918;8.614;2023-06-14T14:13:01;14.57;;;12.45;;
77055;SDS011;67471;44.918;8.614;2023-06-14T14:16:05;11.60;;;10.27;;
77055;SDS011;67471;44.918;8.614;2023-06-14T14:19:09;13.48;;;12.07;;
77055;SDS011;67471;44.918;8.614;2023-06-14T14:22:13;14.38;;;12.02;;
77055;SDS011;67471;44.918;8.614;2023-06-14T14:25:16;15.27;;;11.60;;
77055;SDS011;67471;44.918;8.614;2023-06-14T14:28:20;16.38;;;13.80;;
77055;SDS011;67471;44.918;8.614;2023-06-14T14:31:25;13.10;;;11.25;;
77055;SDS011;67471;44.918;8.614;2023-06-14T14:34:29;18.00;;;12.48;;
77055;SDS011;67471;44.918;8.614;2023-06-14T14:37:32;15.13;;;13.18;;
77055;SDS011;67471;44.918;8.614;2023-06-14T14:40:36;13.15;;;11.65;;
77055;SDS011;67471;44.918;8.614;2023-06-14T14:43:40;14.15;;;12.65;;
77055;SDS011;67471;44.918;8.614;2023-06-14T14:46:44;15.52;;;13.10;;
77055;SDS011;67471;44.918;8.614;2023-06-14T14:49:48;17.13;;;13.38;;
77055;SDS011;67471;44.918;8.614;2023-06-14T14:52:52;15.88;;;12.57;;
77055;SDS011;67471;44.918;8.614;2023-06-14T14:55:56;16.88;;;11.90;;
77055;SDS011;67471;44.918;8.614;2023-06-14T14:58:59;12.25;;;10.88;;
77055;SDS011;67471;44.918;8.614;2023-06-14T15:02:03;14.73;;;13.23;;
77055;SDS011;67471;44.918;8.614;2023-06-14T15:05:07;12.98;;;11.00;;
77055;SDS011;67471;44.918;8.614;2023-06-14T15:08:11;15.20;;;13.60;;
77055;SDS011;67471;44.918;8.614;2023-06-14T15:11:18;14.68;;;13.20;;
77055;SDS011;67471;44.918;8.614;2023-06-14T15:14:21;12.25;;;10.80;;
77055;SDS011;67471;44.918;8.614;2023-06-14T15:17:25;13.88;;;11.93;;
77055;SDS011;67471;44.918;8.614;2023-06-14T15:20:30;13.27;;;11.88;;
77055;SDS011;67471;44.918;8.614;2023-06-14T15:23:33;14.13;;;12.40;;
77055;SDS011;67471;44.918;8.614;2023-06-14T15:26:41;15.60;;;13.95;;
77055;SDS011;67471;44.918;8.614;2023-06-14T15:29:45;13.18;;;11.88;;
77055;SDS011;67471;44.918;8.614;2023-06-14T15:32:49;14.30;;;12.85;;
77055;SDS011;67471;44.918;8.614;2023-06-14T15:35:54;14.50;;;12.90;;
77055;SDS011;67471;44.918;8.614;2023-06-14T15:38:57;14.45;;;12.95;;
77055;SDS011;67471;44.918;8.614;2023-06-14T15:42:02;14.48;;;12.38;;
77055;SDS011;67471;44.918;8.614;2023-06-14T15:45:06;14.65;;;13.05;;
77055;SDS011;67471;44.918;8.614;2023-06-14T15:48:11;14.88;;;12.90;;
77055;SDS011;67471;44.918;8.614;2023-06-14T15:51:15;15.45;;;13.90;;
77055;SDS011;67471;44.918;8.614;2023-06-14T15:54:18;13.10;;;11.80;;
77055;SDS011;67471;44.918;8.614;2023-06-14T15:57:22;17.60;;;13.50;;
77055;SDS011;67471;44.918;8.614;2023-06-14T16:00:26;15.13;;;13.52;;
77055;SDS011;67471;44.918;8.614;2023-06-14T16:03:30;19.92;;;14.52;;
77055;SDS011;67471;44.918;8.614;2023-06-14T16:06:34;14.63;;;13.13;;
77055;SDS011;67471;44.918;8.614;2023-06-14T16:09:39;13.40;;;11.68;;
77055;SDS011;67471;44.918;8.614;2023-06-14T16:12:43;15.30;;;13.32;;
77055;SDS011;67471;44.918;8.614;2023-06-14T16:15:47;12.75;;;10.85;;
77055;SDS011;67471;44.918;8.614;2023-06-14T16:18:51;16.92;;;15.02;;
77055;SDS011;67471;44.918;8.614;2023-06-14T16:21:55;42.10;;;36.92;;
77055;SDS011;67471;44.918;8.614;2023-06-14T16:24:59;18.45;;;15.57;;
77055;SDS011;67471;44.918;8.614;2023-06-14T16:28:03;15.68;;;13.23;;
77055;SDS011;67471;44.918;8.614;2023-06-14T16:31:08;11.90;;;10.57;;
77055;SDS011;67471;44.918;8.614;2023-06-14T16:34:17;13.20;;;11.93;;
77055;SDS011;67471;44.918;8.614;2023-06-14T16:37:24;13.50;;;12.10;;
77055;SDS011;67471;44.918;8.614;2023-06-14T16:40:28;12.45;;;11.15;;
77055;SDS011;67471;44.918;8.614;2023-06-14T16:43:32;13.13;;;11.77;;
77055;SDS011;67471;44.918;8.614;2023-06-14T16:46:37;22.67;;;19.77;;
77055;SDS011;67471;44.918;8.614;2023-06-14T16:49:40;22.50;;;20.13;;
77055;SDS011;67471;44.918;8.614;2023-06-14T16:52:44;20.35;;;18.17;;
77055;SDS011;67471;44.918;8.614;2023-06-14T16:55:48;15.18;;;13.20;;
77055;SDS011;67471;44.918;8.614;2023-06-14T16:58:52;13.70;;;11.07;;
77055;SDS011;67471;44.918;8.614;2023-06-14T17:02:01;13.43;;;10.75;;
77055;SDS011;67471;44.918;8.614;2023-06-14T17:05:08;11.05;;;9.95;;
77055;SDS011;67471;44.918;8.614;2023-06-14T17:08:12;11.98;;;10.73;;
77055;SDS011;67471;44.918;8.614;2023-06-14T17:11:17;11.80;;;9.35;;
77055;SDS011;67471;44.918;8.614;2023-06-14T17:14:22;13.15;;;10.77;;
77055;SDS011;67471;44.918;8.614;2023-06-14T17:17:26;13.43;;;12.13;;
77055;SDS011;67471;44.918;8.614;2023-06-14T17:20:30;18.30;;;14.75;;
77055;SDS011;67471;44.918;8.614;2023-06-14T17:23:34;16.10;;;14.40;;
77055;SDS011;67471;44.918;8.614;2023-06-14T17:26:37;19.08;;;15.68;;
77055;SDS011;67471;44.918;8.614;2023-06-14T17:29:42;17.85;;;16.02;;
77055;SDS011;67471;44.918;8.614;2023-06-14T17:32:46;20.10;;;17.90;;
77055;SDS011;67471;44.918;8.614;2023-06-14T17:35:49;20.75;;;18.55;;
77055;SDS011;67471;44.918;8.614;2023-06-14T17:38:53;22.17;;;19.77;;
77055;SDS011;67471;44.918;8.614;2023-06-14T17:42:01;20.10;;;17.58;;
77055;SDS011;67471;44.918;8.614;2023-06-14T17:45:05;22.13;;;18.58;;
77055;SDS011;67471;44.918;8.614;2023-06-14T17:48:09;23.33;;;19.08;;
77055;SDS011;67471;44.918;8.614;2023-06-14T17:51:12;21.88;;;18.63;;
77055;SDS011;67471;44.918;8.614;2023-06-14T17:54:18;20.77;;;18.65;;
77055;SDS011;67471;44.918;8.614;2023-06-14T17:57:22;20.98;;;18.67;;
77055;SDS011;67471;44.918;8.614;2023-06-14T18:00:26;20.90;;;18.77;;
77055;SDS011;67471;44.918;8.614;2023-06-14T18:03:30;20.02;;;18.02;;
77055;SDS011;67471;44.918;8.614;2023-06-14T18:06:34;18.10;;;16.27;;
77055;SDS011;67471;44.918;8.614;2023-06-14T18:09:38;22.42;;;20.02;;
77055;SDS011;67471;44.918;8.614;2023-06-14T18:12:41;19.77;;;17.77;;
77055;SDS011;67471;44.918;8.614;2023-06-14T18:15:45;21.88;;;19.65;;
77055;SDS011;67471;44.918;8.614;2023-06-14T18:18:49;18.23;;;16.35;;
77055;SDS011;67471;44.918;8.614;2023-06-14T18:21:54;20.02;;;18.08;;
77055;SDS011;67471;44.918;8.614;2023-06-14T18:24:59;21.92;;;19.58;;